Johnson, NY (10933)

4:22 PM EDT on April 25, 2015 (GMT -0400)
Slate Hill, NY | | Change Station
CLOSE
Current Station
Personal Weather Station
Location: Slate Hill, NY
Elevation: 558 ft
Nearby Weather Stations
Active Advisory: Frost Advisory

Elev 558 ft 41.39 °N, 74.49 °W | Updated 14 minutes ago

Clear
Clear
60.4 °F
Feels Like 60.4 °F
N
9.4
Wind Variable Wind from ESE

Today
High -- | Low -- °F
--% Chance of Precip.
Yesterday
High -- | Low -- °F
Precip. -- in
6:03 AM 7:48 PM
Waxing Crescent, 48% visible
Pressure 29.74 in
Visibility 10.0 miles
Clouds Clear
Dew Point 25 °F
Humidity 26%
Rainfall 0.00 in
Snow Depth Not available.
UV 6 out of 12
Pollen 10.80 out of 12
Air Quality Not available.
Flu Activity Widespread
METAR KFWN 251953Z AUTO 32006KT 10SM CLR 14/M04 A2973 RMK AO2 SLP069 T01441039

More Conditions Fewer Conditions

Pressure 29.74 in
Visibility 10.0 miles
Clouds Clear
Dew Point 25 °F
Humidity 26%
Rainfall 0.00 in
Snow Depth Not available.
UV 6 out of 12
Pollen 10.80 out of 12
Air Quality Not available.
Flu Activity Widespread
METAR KFWN 251953Z AUTO 32006KT 10SM CLR 14/M04 A2973 RMK AO2 SLP069 T01441039

More Conditions Fewer Conditions

10-Day Weather Forecast

Almanac

Astronomy

Apr. 25, 2015 Rise Set
Actual Time
Civil Twilight
Nautical Twilight
Astronomical Twilight
Moon
Length of Visible Light
Length of Day
Tomorrow will be .
, % of the Moon is Illuminated

Today's Extremes

State Highs State Lows

Community

WunderPhotos

Upload Photos

1,816,798 photos uploaded!

WunderBlogs® & News

Nearby

Air Quality

  Air Quality AQ Index Pollutant
Not available.

Snow Depth

Station Depth Elevation

Earthquake Activity

City Distance Mag. Time & Date
Minimum magnitude displayed is 2.5.

Coastal Water Temperatures

Place Temperature

Stations

Nearby Weather Stations

Station Location Temp. Windchill Dew Point Humidity Wind Precip. Elev Updated Type
                   
Frost Advisory
Statement as of 3:43 PM EDT on April 25, 2015

... Frost advisory in effect from 2 am to 8 am EDT Sunday...

The National Weather Service in Upton has issued a frost
advisory... which is in effect from 2 am to 8 am EDT Sunday.

* Locations... much of southern Connecticut and the lower Hudson
Valley... interior portions of northeastern New Jersey... and
eastern Long Island.

* Hazards... ground temperatures falling to freezing.

* Temperatures... in the lower to mid 30s.

* Timing... late tonight into early Sunday morning.

* Impacts... possible damage to early season plants that are
unprotected.

Precautionary/preparedness actions...

A frost advisory means that frost is expected. Sensitive outdoor
plants should be protected.